sensor_id;sensor_type;location;lat;lon;timestamp;temperature;humidity
16273;DHT22;8244;50.044;9.006;2022-08-03T00:02:40;19.60;99.90
16273;DHT22;8244;50.044;9.006;2022-08-03T00:07:42;19.50;99.90
16273;DHT22;8244;50.044;9.006;2022-08-03T00:12:44;19.50;99.90
16273;DHT22;8244;50.044;9.006;2022-08-03T00:17:47;19.40;99.90
16273;DHT22;8244;50.044;9.006;2022-08-03T00:22:49;19.30;99.90
16273;DHT22;8244;50.044;9.006;2022-08-03T00:27:50;19.20;99.90
16273;DHT22;8244;50.044;9.006;2022-08-03T00:32:53;19.10;99.90
16273;DHT22;8244;50.044;9.006;2022-08-03T00:37:55;19.10;99.90
16273;DHT22;8244;50.044;9.006;2022-08-03T00:42:59;19.00;99.90
16273;DHT22;8244;50.044;9.006;2022-08-03T00:48:03;19.00;99.90
16273;DHT22;8244;50.044;9.006;2022-08-03T00:53:06;18.90;99.90
16273;DHT22;8244;50.044;9.006;2022-08-03T00:58:08;18.80;99.90
16273;DHT22;8244;50.044;9.006;2022-08-03T01:03:12;18.70;99.90
16273;DHT22;8244;50.044;9.006;2022-08-03T01:08:19;18.60;99.90
16273;DHT22;8244;50.044;9.006;2022-08-03T01:13:28;18.50;99.90
16273;DHT22;8244;50.044;9.006;2022-08-03T01:18:36;18.40;99.90
16273;DHT22;8244;50.044;9.006;2022-08-03T01:23:57;18.30;99.90
16273;DHT22;8244;50.044;9.006;2022-08-03T01:29:17;18.20;99.90
16273;DHT22;8244;50.044;9.006;2022-08-03T01:34:26;18.10;99.90
16273;DHT22;8244;50.044;9.006;2022-08-03T01:39:31;18.00;99.90
16273;DHT22;8244;50.044;9.006;2022-08-03T01:44:37;17.90;99.90
16273;DHT22;8244;50.044;9.006;2022-08-03T01:49:42;17.90;99.90
16273;DHT22;8244;50.044;9.006;2022-08-03T01:54:48;17.70;99.90
16273;DHT22;8244;50.044;9.006;2022-08-03T01:59:52;17.70;99.90
16273;DHT22;8244;50.044;9.006;2022-08-03T02:04:57;17.70;99.90
16273;DHT22;8244;50.044;9.006;2022-08-03T02:10:02;17.60;99.90
16273;DHT22;8244;50.044;9.006;2022-08-03T02:15:06;17.50;99.90
16273;DHT22;8244;50.044;9.006;2022-08-03T02:20:10;17.50;99.90
16273;DHT22;8244;50.044;9.006;2022-08-03T02:25:14;17.40;99.90
16273;DHT22;8244;50.044;9.006;2022-08-03T02:30:17;17.40;99.90
16273;DHT22;8244;50.044;9.006;2022-08-03T02:35:23;17.30;99.90
16273;DHT22;8244;50.044;9.006;2022-08-03T02:40:27;17.20;99.90
16273;DHT22;8244;50.044;9.006;2022-08-03T02:45:31;17.20;99.90
16273;DHT22;8244;50.044;9.006;2022-08-03T02:50:36;17.10;99.90
16273;DHT22;8244;50.044;9.006;2022-08-03T02:55:39;17.10;99.90
16273;DHT22;8244;50.044;9.006;2022-08-03T03:00:43;17.00;99.90
16273;DHT22;8244;50.044;9.006;2022-08-03T03:05:47;16.90;99.90
16273;DHT22;8244;50.044;9.006;2022-08-03T03:10:50;16.90;99.90
16273;DHT22;8244;50.044;9.006;2022-08-03T03:15:53;16.90;99.90
16273;DHT22;8244;50.044;9.006;2022-08-03T03:20:59;16.80;99.90
16273;DHT22;8244;50.044;9.006;2022-08-03T03:26:02;16.70;99.90
16273;DHT22;8244;50.044;9.006;2022-08-03T03:31:04;16.70;99.90
16273;DHT22;8244;50.044;9.006;2022-08-03T03:36:07;16.60;99.90
16273;DHT22;8244;50.044;9.006;2022-08-03T03:41:10;16.60;99.90
16273;DHT22;8244;50.044;9.006;2022-08-03T03:46:13;16.50;99.90
16273;DHT22;8244;50.044;9.006;2022-08-03T03:51:16;16.50;99.90
16273;DHT22;8244;50.044;9.006;2022-08-03T03:56:18;16.50;99.90
16273;DHT22;8244;50.044;9.006;2022-08-03T04:01:20;16.40;99.90
16273;DHT22;8244;50.044;9.006;2022-08-03T04:06:23;16.40;99.90
16273;DHT22;8244;50.044;9.006;2022-08-03T04:11:46;16.40;99.90
16273;DHT22;8244;50.044;9.006;2022-08-03T04:16:52;16.30;99.90
16273;DHT22;8244;50.044;9.006;2022-08-03T04:21:59;16.30;99.90
16273;DHT22;8244;50.044;9.006;2022-08-03T04:27:04;16.30;99.90
16273;DHT22;8244;50.044;9.006;2022-08-03T04:32:07;16.30;99.90
16273;DHT22;8244;50.044;9.006;2022-08-03T04:37:11;16.40;99.90
16273;DHT22;8244;50.044;9.006;2022-08-03T04:42:13;16.40;99.90
16273;DHT22;8244;50.044;9.006;2022-08-03T04:47:15;16.60;99.90
16273;DHT22;8244;50.044;9.006;2022-08-03T04:52:19;17.00;99.90
16273;DHT22;8244;50.044;9.006;2022-08-03T04:57:20;17.50;99.90
16273;DHT22;8244;50.044;9.006;2022-08-03T05:02:22;18.10;99.90
16273;DHT22;8244;50.044;9.006;2022-08-03T05:07:25;19.10;99.90
16273;DHT22;8244;50.044;9.006;2022-08-03T05:12:27;20.40;99.90
16273;DHT22;8244;50.044;9.006;2022-08-03T05:17:29;21.50;99.90
16273;DHT22;8244;50.044;9.006;2022-08-03T05:22:32;22.80;99.90
16273;DHT22;8244;50.044;9.006;2022-08-03T05:27:34;23.90;99.90
16273;DHT22;8244;50.044;9.006;2022-08-03T05:32:35;24.70;97.60
16273;DHT22;8244;50.044;9.006;2022-08-03T05:37:38;25.70;93.80
16273;DHT22;8244;50.044;9.006;2022-08-03T05:42:40;26.50;91.10
16273;DHT22;8244;50.044;9.006;2022-08-03T05:47:42;27.30;88.10
16273;DHT22;8244;50.044;9.006;2022-08-03T05:52:46;28.00;86.20
16273;DHT22;8244;50.044;9.006;2022-08-03T05:57:47;28.50;81.00
16273;DHT22;8244;50.044;9.006;2022-08-03T06:02:49;28.40;80.30
16273;DHT22;8244;50.044;9.006;2022-08-03T06:07:52;28.50;79.00
16273;DHT22;8244;50.044;9.006;2022-08-03T06:12:54;28.70;80.60
16273;DHT22;8244;50.044;9.006;2022-08-03T06:17:56;28.90;77.40
16273;DHT22;8244;50.044;9.006;2022-08-03T06:22:59;29.00;77.10
16273;DHT22;8244;50.044;9.006;2022-08-03T06:28:00;29.40;75.30
16273;DHT22;8244;50.044;9.006;2022-08-03T06:33:04;29.70;73.40
16273;DHT22;8244;50.044;9.006;2022-08-03T06:38:07;29.60;72.80
16273;DHT22;8244;50.044;9.006;2022-08-03T06:43:09;29.80;73.50
16273;DHT22;8244;50.044;9.006;2022-08-03T06:48:12;30.30;70.60
16273;DHT22;8244;50.044;9.006;2022-08-03T06:53:15;30.60;70.30
16273;DHT22;8244;50.044;9.006;2022-08-03T06:58:16;30.90;68.40
16273;DHT22;8244;50.044;9.006;2022-08-03T07:03:18;31.20;69.60
16273;DHT22;8244;50.044;9.006;2022-08-03T07:08:21;31.70;68.20
16273;DHT22;8244;50.044;9.006;2022-08-03T07:13:23;31.90;66.00
16273;DHT22;8244;50.044;9.006;2022-08-03T07:18:25;32.20;64.70
16273;DHT22;8244;50.044;9.006;2022-08-03T07:23:28;32.50;64.80
16273;DHT22;8244;50.044;9.006;2022-08-03T07:28:30;33.10;62.60
16273;DHT22;8244;50.044;9.006;2022-08-03T07:33:32;33.30;62.30
16273;DHT22;8244;50.044;9.006;2022-08-03T07:38:35;33.70;62.00
16273;DHT22;8244;50.044;9.006;2022-08-03T07:43:37;34.20;62.10
16273;DHT22;8244;50.044;9.006;2022-08-03T07:48:38;34.70;59.30
16273;DHT22;8244;50.044;9.006;2022-08-03T07:53:41;35.20;58.70
16273;DHT22;8244;50.044;9.006;2022-08-03T07:58:43;35.80;58.10
16273;DHT22;8244;50.044;9.006;2022-08-03T08:03:45;36.30;56.70
16273;DHT22;8244;50.044;9.006;2022-08-03T08:08:48;36.70;54.40
16273;DHT22;8244;50.044;9.006;2022-08-03T08:13:50;37.00;54.10
16273;DHT22;8244;50.044;9.006;2022-08-03T08:18:51;37.30;53.40
16273;DHT22;8244;50.044;9.006;2022-08-03T08:23:54;37.90;53.40
16273;DHT22;8244;50.044;9.006;2022-08-03T08:28:56;37.70;50.10
16273;DHT22;8244;50.044;9.006;2022-08-03T08:33:58;37.70;51.10
16273;DHT22;8244;50.044;9.006;2022-08-03T08:39:06;37.90;49.80
16273;DHT22;8244;50.044;9.006;2022-08-03T08:44:08;38.20;50.50
16273;DHT22;8244;50.044;9.006;2022-08-03T08:49:11;38.90;49.90
16273;DHT22;8244;50.044;9.006;2022-08-03T08:54:14;39.40;48.80
16273;DHT22;8244;50.044;9.006;2022-08-03T08:59:17;39.80;49.00
16273;DHT22;8244;50.044;9.006;2022-08-03T09:04:20;40.00;47.30
16273;DHT22;8244;50.044;9.006;2022-08-03T09:09:23;39.80;48.40
16273;DHT22;8244;50.044;9.006;2022-08-03T09:14:25;40.20;48.00
16273;DHT22;8244;50.044;9.006;2022-08-03T09:19:27;39.80;47.90
16273;DHT22;8244;50.044;9.006;2022-08-03T09:24:31;40.20;48.00
16273;DHT22;8244;50.044;9.006;2022-08-03T09:29:32;40.90;47.30
16273;DHT22;8244;50.044;9.006;2022-08-03T09:34:35;40.90;46.50
16273;DHT22;8244;50.044;9.006;2022-08-03T09:39:38;41.40;44.50
16273;DHT22;8244;50.044;9.006;2022-08-03T09:44:41;41.30;45.80
16273;DHT22;8244;50.044;9.006;2022-08-03T09:49:56;41.70;44.30
16273;DHT22;8244;50.044;9.006;2022-08-03T09:55:08;42.20;44.40
16273;DHT22;8244;50.044;9.006;2022-08-03T10:00:12;42.90;43.90
16273;DHT22;8244;50.044;9.006;2022-08-03T10:05:14;43.30;43.30
16273;DHT22;8244;50.044;9.006;2022-08-03T10:10:17;43.50;41.80
16273;DHT22;8244;50.044;9.006;2022-08-03T10:15:19;43.10;42.40
16273;DHT22;8244;50.044;9.006;2022-08-03T10:20:21;42.80;42.80
16273;DHT22;8244;50.044;9.006;2022-08-03T10:25:25;43.00;42.80
16273;DHT22;8244;50.044;9.006;2022-08-03T10:30:31;42.80;42.40
16273;DHT22;8244;50.044;9.006;2022-08-03T10:35:36;42.90;43.00
16273;DHT22;8244;50.044;9.006;2022-08-03T10:40:42;43.60;43.10
16273;DHT22;8244;50.044;9.006;2022-08-03T10:45:45;44.00;41.70
16273;DHT22;8244;50.044;9.006;2022-08-03T10:50:48;44.10;41.90
16273;DHT22;8244;50.044;9.006;2022-08-03T10:55:53;44.30;41.20
16273;DHT22;8244;50.044;9.006;2022-08-03T11:01:12;44.60;41.30
16273;DHT22;8244;50.044;9.006;2022-08-03T11:06:16;44.60;41.10
16273;DHT22;8244;50.044;9.006;2022-08-03T11:11:25;44.00;41.70
16273;DHT22;8244;50.044;9.006;2022-08-03T11:16:30;43.70;43.00
16273;DHT22;8244;50.044;9.006;2022-08-03T11:21:57;44.20;42.30
16273;DHT22;8244;50.044;9.006;2022-08-03T11:27:18;44.60;41.40
16273;DHT22;8244;50.044;9.006;2022-08-03T11:32:57;44.80;39.60
16273;DHT22;8244;50.044;9.006;2022-08-03T11:38:07;43.80;40.80
16273;DHT22;8244;50.044;9.006;2022-08-03T11:43:43;44.00;42.50
16273;DHT22;8244;50.044;9.006;2022-08-03T11:48:46;44.60;40.50
16273;DHT22;8244;50.044;9.006;2022-08-03T11:53:52;44.80;40.90
16273;DHT22;8244;50.044;9.006;2022-08-03T11:58:56;44.80;39.80
16273;DHT22;8244;50.044;9.006;2022-08-03T12:04:02;43.70;41.90
16273;DHT22;8244;50.044;9.006;2022-08-03T12:09:14;43.40;41.80
16273;DHT22;8244;50.044;9.006;2022-08-03T12:14:18;44.00;43.10
16273;DHT22;8244;50.044;9.006;2022-08-03T12:19:19;44.60;41.00
16273;DHT22;8244;50.044;9.006;2022-08-03T12:24:21;44.90;39.40
16273;DHT22;8244;50.044;9.006;2022-08-03T12:29:24;45.20;41.30
16273;DHT22;8244;50.044;9.006;2022-08-03T12:34:44;45.30;40.20
16273;DHT22;8244;50.044;9.006;2022-08-03T12:39:49;45.10;41.50
16273;DHT22;8244;50.044;9.006;2022-08-03T12:44:52;45.40;40.00
16273;DHT22;8244;50.044;9.006;2022-08-03T12:49:54;45.80;39.80
16273;DHT22;8244;50.044;9.006;2022-08-03T12:54:58;45.40;39.30
16273;DHT22;8244;50.044;9.006;2022-08-03T13:00:09;45.20;40.40
16273;DHT22;8244;50.044;9.006;2022-08-03T13:05:13;45.50;40.90
16273;DHT22;8244;50.044;9.006;2022-08-03T13:10:26;45.90;39.80
16273;DHT22;8244;50.044;9.006;2022-08-03T13:15:30;46.10;39.60
16273;DHT22;8244;50.044;9.006;2022-08-03T13:20:32;46.40;40.30
16273;DHT22;8244;50.044;9.006;2022-08-03T13:25:34;46.50;39.10
16273;DHT22;8244;50.044;9.006;2022-08-03T13:30:38;46.50;39.80
16273;DHT22;8244;50.044;9.006;2022-08-03T13:35:40;46.40;38.70
16273;DHT22;8244;50.044;9.006;2022-08-03T13:40:41;46.40;41.00
16273;DHT22;8244;50.044;9.006;2022-08-03T13:45:44;46.60;37.40
16273;DHT22;8244;50.044;9.006;2022-08-03T13:50:46;45.70;39.70
16273;DHT22;8244;50.044;9.006;2022-08-03T13:55:48;45.70;38.70
16273;DHT22;8244;50.044;9.006;2022-08-03T14:00:51;44.80;41.40
16273;DHT22;8244;50.044;9.006;2022-08-03T14:05:53;44.70;40.20
16273;DHT22;8244;50.044;9.006;2022-08-03T14:10:54;44.60;42.10
16273;DHT22;8244;50.044;9.006;2022-08-03T14:15:58;45.10;40.80
16273;DHT22;8244;50.044;9.006;2022-08-03T14:21:00;45.30;41.60
16273;DHT22;8244;50.044;9.006;2022-08-03T14:26:02;45.30;40.40
16273;DHT22;8244;50.044;9.006;2022-08-03T14:31:06;45.10;41.40
16273;DHT22;8244;50.044;9.006;2022-08-03T14:36:07;44.80;42.50
16273;DHT22;8244;50.044;9.006;2022-08-03T14:41:09;44.80;42.10
16273;DHT22;8244;50.044;9.006;2022-08-03T14:46:12;44.80;42.70
16273;DHT22;8244;50.044;9.006;2022-08-03T14:51:14;44.80;41.50
16273;DHT22;8244;50.044;9.006;2022-08-03T14:56:17;44.60;40.80
16273;DHT22;8244;50.044;9.006;2022-08-03T15:01:20;44.30;40.70
16273;DHT22;8244;50.044;9.006;2022-08-03T15:06:21;44.00;42.20
16273;DHT22;8244;50.044;9.006;2022-08-03T15:11:23;43.60;42.40
16273;DHT22;8244;50.044;9.006;2022-08-03T15:16:26;43.60;41.00
16273;DHT22;8244;50.044;9.006;2022-08-03T15:21:28;43.30;40.70
16273;DHT22;8244;50.044;9.006;2022-08-03T15:26:30;42.60;43.60
16273;DHT22;8244;50.044;9.006;2022-08-03T15:31:33;42.50;42.70
16273;DHT22;8244;50.044;9.006;2022-08-03T15:36:35;42.50;42.70
16273;DHT22;8244;50.044;9.006;2022-08-03T15:41:36;42.40;42.50
16273;DHT22;8244;50.044;9.006;2022-08-03T15:46:39;42.20;43.00
16273;DHT22;8244;50.044;9.006;2022-08-03T15:51:41;42.10;43.40
16273;DHT22;8244;50.044;9.006;2022-08-03T15:56:43;42.00;42.90
16273;DHT22;8244;50.044;9.006;2022-08-03T16:01:47;41.80;43.90
16273;DHT22;8244;50.044;9.006;2022-08-03T16:06:49;41.70;43.20
16273;DHT22;8244;50.044;9.006;2022-08-03T16:11:51;41.50;43.00
16273;DHT22;8244;50.044;9.006;2022-08-03T16:16:54;41.30;44.60
16273;DHT22;8244;50.044;9.006;2022-08-03T16:21:55;41.20;44.20
16273;DHT22;8244;50.044;9.006;2022-08-03T16:26:57;41.00;46.50
16273;DHT22;8244;50.044;9.006;2022-08-03T16:32:00;40.80;46.10
16273;DHT22;8244;50.044;9.006;2022-08-03T16:37:06;40.60;46.60
16273;DHT22;8244;50.044;9.006;2022-08-03T16:42:08;40.40;45.90
16273;DHT22;8244;50.044;9.006;2022-08-03T16:47:11;40.20;47.30
16273;DHT22;8244;50.044;9.006;2022-08-03T16:52:13;40.10;48.20
16273;DHT22;8244;50.044;9.006;2022-08-03T16:57:14;39.70;46.80
16273;DHT22;8244;50.044;9.006;2022-08-03T17:02:21;39.40;45.90
16273;DHT22;8244;50.044;9.006;2022-08-03T17:07:23;39.10;48.90
16273;DHT22;8244;50.044;9.006;2022-08-03T17:12:25;38.90;49.50
16273;DHT22;8244;50.044;9.006;2022-08-03T17:17:30;38.60;50.30
16273;DHT22;8244;50.044;9.006;2022-08-03T17:22:35;38.30;50.80
16273;DHT22;8244;50.044;9.006;2022-08-03T17:27:37;38.00;47.80
16273;DHT22;8244;50.044;9.006;2022-08-03T17:32:41;37.60;48.50
16273;DHT22;8244;50.044;9.006;2022-08-03T17:37:46;37.30;49.50
16273;DHT22;8244;50.044;9.006;2022-08-03T17:42:48;37.00;52.20
16273;DHT22;8244;50.044;9.006;2022-08-03T17:47:51;36.70;53.30
16273;DHT22;8244;50.044;9.006;2022-08-03T17:53:00;36.50;53.90
16273;DHT22;8244;50.044;9.006;2022-08-03T17:58:09;36.20;54.10
16273;DHT22;8244;50.044;9.006;2022-08-03T18:03:18;35.90;54.50
16273;DHT22;8244;50.044;9.006;2022-08-03T18:08:25;35.70;55.30
16273;DHT22;8244;50.044;9.006;2022-08-03T18:13:29;35.30;53.10
16273;DHT22;8244;50.044;9.006;2022-08-03T18:18:35;35.00;55.90
16273;DHT22;8244;50.044;9.006;2022-08-03T18:23:37;34.70;57.90
16273;DHT22;8244;50.044;9.006;2022-08-03T18:28:39;34.50;58.80
16273;DHT22;8244;50.044;9.006;2022-08-03T18:33:44;34.20;57.80
16273;DHT22;8244;50.044;9.006;2022-08-03T18:38:46;33.90;58.20
16273;DHT22;8244;50.044;9.006;2022-08-03T18:43:51;33.60;59.80
16273;DHT22;8244;50.044;9.006;2022-08-03T18:48:59;33.30;60.00
16273;DHT22;8244;50.044;9.006;2022-08-03T18:54:06;33.00;61.80
16273;DHT22;8244;50.044;9.006;2022-08-03T18:59:14;32.70;62.40
16273;DHT22;8244;50.044;9.006;2022-08-03T19:04:27;32.40;64.20
16273;DHT22;8244;50.044;9.006;2022-08-03T19:09:36;32.00;63.60
16273;DHT22;8244;50.044;9.006;2022-08-03T19:14:48;31.70;63.60
16273;DHT22;8244;50.044;9.006;2022-08-03T19:19:53;31.40;63.60
16273;DHT22;8244;50.044;9.006;2022-08-03T19:24:55;31.10;64.00
16273;DHT22;8244;50.044;9.006;2022-08-03T19:30:02;30.80;64.00
16273;DHT22;8244;50.044;9.006;2022-08-03T19:35:07;30.60;64.60
16273;DHT22;8244;50.044;9.006;2022-08-03T19:40:10;30.40;65.50
16273;DHT22;8244;50.044;9.006;2022-08-03T19:45:16;30.20;67.10
16273;DHT22;8244;50.044;9.006;2022-08-03T19:50:24;29.90;67.50
16273;DHT22;8244;50.044;9.006;2022-08-03T19:55:27;29.70;69.00
16273;DHT22;8244;50.044;9.006;2022-08-03T20:00:30;29.40;71.00
16273;DHT22;8244;50.044;9.006;2022-08-03T20:05:34;29.20;73.90
16273;DHT22;8244;50.044;9.006;2022-08-03T20:10:36;29.00;75.50
16273;DHT22;8244;50.044;9.006;2022-08-03T20:15:39;28.80;75.60
16273;DHT22;8244;50.044;9.006;2022-08-03T20:20:42;28.60;74.40
16273;DHT22;8244;50.044;9.006;2022-08-03T20:25:49;28.40;76.10
16273;DHT22;8244;50.044;9.006;2022-08-03T20:30:51;28.20;78.90
16273;DHT22;8244;50.044;9.006;2022-08-03T20:35:54;28.00;80.90
16273;DHT22;8244;50.044;9.006;2022-08-03T20:40:56;27.80;81.40
16273;DHT22;8244;50.044;9.006;2022-08-03T20:45:58;27.60;80.60
16273;DHT22;8244;50.044;9.006;2022-08-03T20:51:03;27.40;80.00
16273;DHT22;8244;50.044;9.006;2022-08-03T20:56:05;27.20;78.70
16273;DHT22;8244;50.044;9.006;2022-08-03T21:01:08;27.00;77.70
16273;DHT22;8244;50.044;9.006;2022-08-03T21:06:15;26.80;80.40
16273;DHT22;8244;50.044;9.006;2022-08-03T21:11:19;26.70;81.20
16273;DHT22;8244;50.044;9.006;2022-08-03T21:16:27;26.50;81.50
16273;DHT22;8244;50.044;9.006;2022-08-03T21:21:31;26.40;82.70
16273;DHT22;8244;50.044;9.006;2022-08-03T21:26:37;26.20;83.00
16273;DHT22;8244;50.044;9.006;2022-08-03T21:31:39;26.10;84.40
16273;DHT22;8244;50.044;9.006;2022-08-03T21:36:42;25.90;89.50
16273;DHT22;8244;50.044;9.006;2022-08-03T21:41:44;25.80;90.20
16273;DHT22;8244;50.044;9.006;2022-08-03T21:46:48;25.60;90.00
16273;DHT22;8244;50.044;9.006;2022-08-03T21:51:52;25.50;90.30
16273;DHT22;8244;50.044;9.006;2022-08-03T21:56:56;25.40;90.40
16273;DHT22;8244;50.044;9.006;2022-08-03T22:02:02;25.30;91.30
16273;DHT22;8244;50.044;9.006;2022-08-03T22:07:06;25.20;90.60
16273;DHT22;8244;50.044;9.006;2022-08-03T22:12:07;25.10;90.90
16273;DHT22;8244;50.044;9.006;2022-08-03T22:17:09;25.00;91.00
16273;DHT22;8244;50.044;9.006;2022-08-03T22:22:12;24.90;91.40
16273;DHT22;8244;50.044;9.006;2022-08-03T22:27:15;24.80;92.10
16273;DHT22;8244;50.044;9.006;2022-08-03T22:32:33;24.70;92.40
16273;DHT22;8244;50.044;9.006;2022-08-03T22:37:39;24.60;93.70
16273;DHT22;8244;50.044;9.006;2022-08-03T22:42:42;24.50;93.70
16273;DHT22;8244;50.044;9.006;2022-08-03T22:47:45;24.40;94.60
16273;DHT22;8244;50.044;9.006;2022-08-03T22:52:49;24.30;95.30
16273;DHT22;8244;50.044;9.006;2022-08-03T22:57:52;24.20;95.50
16273;DHT22;8244;50.044;9.006;2022-08-03T23:02:54;24.10;95.30
16273;DHT22;8244;50.044;9.006;2022-08-03T23:08:02;24.00;96.60
16273;DHT22;8244;50.044;9.006;2022-08-03T23:13:04;23.90;96.70
16273;DHT22;8244;50.044;9.006;2022-08-03T23:18:08;23.80;96.20
16273;DHT22;8244;50.044;9.006;2022-08-03T23:23:11;23.70;96.50
16273;DHT22;8244;50.044;9.006;2022-08-03T23:28:15;23.60;96.90
16273;DHT22;8244;50.044;9.006;2022-08-03T23:33:17;23.50;96.80
16273;DHT22;8244;50.044;9.006;2022-08-03T23:38:22;23.40;96.40
16273;DHT22;8244;50.044;9.006;2022-08-03T23:43:26;23.30;96.70
16273;DHT22;8244;50.044;9.006;2022-08-03T23:48:27;23.20;98.20
16273;DHT22;8244;50.044;9.006;2022-08-03T23:53:36;23.10;99.90
16273;DHT22;8244;50.044;9.006;2022-08-03T23:58:53;23.10;99.90
